createdAt,value
2023-05-13T00:00:44.000Z,1.7
2023-05-13T00:01:43.129Z,1.9
2023-05-13T00:03:17.000Z,1.9
2023-05-13T00:04:33.515Z,1.7
2023-05-13T00:05:49.000Z,2.2
2023-05-13T00:06:47.904Z,1.7
2023-05-13T00:08:21.000Z,1.6
2023-05-13T00:09:37.000Z,1.8
2023-05-13T00:10:35.500Z,1.8
2023-05-13T00:12:09.697Z,1.7
2023-05-13T00:13:25.886Z,1.7
2023-05-13T00:14:24.080Z,1.6
2023-05-13T00:15:58.273Z,1.9
2023-05-13T00:16:56.467Z,2.3
2023-05-13T00:18:30.660Z,2.2
2023-05-13T00:19:46.000Z,1.8
2023-05-13T00:20:45.046Z,1.7
2023-05-13T00:22:19.000Z,1.6
2023-05-13T00:23:35.000Z,2
2023-05-13T00:24:51.630Z,1.6
2023-05-13T00:26:07.000Z,1.8
2023-05-13T00:27:06.013Z,1.7
2023-05-13T00:28:40.206Z,1.7
2023-05-13T00:29:38.400Z,1.8
2023-05-13T00:31:12.000Z,1.8
2023-05-13T00:32:10.787Z,1.6
2023-05-13T00:33:44.003Z,1.5
2023-05-13T00:35:00.000Z,1.7
2023-05-13T00:36:16.000Z,1.9
2023-05-13T00:37:58.000Z,1.8
2023-05-13T00:38:48.000Z,1.6
2023-05-13T00:39:46.964Z,1.6
2023-05-13T00:41:21.161Z,1.7
2023-05-13T00:42:37.362Z,2
2023-05-13T00:43:53.543Z,2
2023-05-13T00:45:36.000Z,2
2023-05-13T00:46:25.000Z,2.3
2023-05-13T00:47:42.124Z,1.9
2023-05-13T00:48:58.000Z,1.9
2023-05-13T00:50:14.510Z,1.8
2023-05-13T00:51:11.721Z,1.8
2023-05-13T00:52:45.907Z,1.9
2023-05-13T00:54:02.000Z,1.8
2023-05-13T00:55:18.000Z,2
2023-05-13T00:56:34.000Z,1.8
2023-05-13T00:57:32.687Z,1.8
2023-05-13T00:58:48.881Z,1.7
2023-05-13T01:00:23.074Z,1.9
2023-05-13T01:01:39.267Z,2
2023-05-13T01:02:55.470Z,1.6
2023-05-13T01:03:53.653Z,1.8
2023-05-13T01:05:09.848Z,2.2
2023-05-13T01:06:44.000Z,1.9
2023-05-13T01:07:42.234Z,1.9
2023-05-13T01:09:16.000Z,2
2023-05-13T01:10:59.000Z,2.1
2023-05-13T01:11:48.813Z,2
2023-05-13T01:13:05.000Z,1.9
2023-05-13T01:14:21.000Z,1.6
2023-05-13T01:15:37.000Z,1.6
2023-05-13T01:16:53.000Z,2
2023-05-13T01:17:51.792Z,1.8
2023-05-13T01:19:26.000Z,1.8
2023-05-13T01:20:24.183Z,1.8
2023-05-13T01:21:39.394Z,1.8
2023-05-13T01:22:55.588Z,1.6
2023-05-13T01:24:29.784Z,1.7
2023-05-13T01:25:45.000Z,1.6
2023-05-13T01:27:02.000Z,1.9
2023-05-13T01:28:18.370Z,1.9
2023-05-13T01:29:34.000Z,2
2023-05-13T01:30:32.758Z,1.9
2023-05-13T01:32:06.000Z,1.9
2023-05-13T01:33:05.149Z,1.7
2023-05-13T01:34:39.000Z,1.8
2023-05-13T01:35:37.540Z,1.8
2023-05-13T01:37:11.000Z,1.6
2023-05-13T01:38:26.000Z,2
2023-05-13T01:39:43.000Z,1.7
2023-05-13T01:40:59.331Z,1.6
2023-05-13T01:42:15.525Z,1.7
2023-05-13T01:43:31.000Z,2.2
2023-05-13T01:44:29.919Z,2.4
2023-05-13T01:45:46.114Z,1.8
2023-05-13T01:47:20.310Z,1.8
2023-05-13T01:48:36.502Z,2
2023-05-13T01:49:52.000Z,1.9
2023-05-13T01:51:08.000Z,1.9
2023-05-13T01:52:25.000Z,1.9
2023-05-13T01:53:41.295Z,1.9
2023-05-13T01:54:57.000Z,1.7
2023-05-13T01:55:55.677Z,1.6
2023-05-13T01:57:28.895Z,1.9
2023-05-13T01:58:45.079Z,2
2023-05-13T02:00:01.278Z,1.9
2023-05-13T02:00:59.473Z,1.7
2023-05-13T02:02:33.000Z,1.9
2023-05-13T02:03:49.864Z,1.8
2023-05-13T02:05:06.060Z,1.6
2023-05-13T02:06:22.260Z,1.9
2023-05-13T02:07:38.450Z,2.1
2023-05-13T02:08:54.646Z,2.1
2023-05-13T02:10:10.841Z,1.9
2023-05-13T02:11:09.036Z,1.9
2023-05-13T02:12:43.000Z,1.8
2023-05-13T02:13:41.548Z,1.8
2023-05-13T02:15:15.744Z,1.8
2023-05-13T02:16:31.000Z,2.1
2023-05-13T02:17:48.000Z,2.1
2023-05-13T02:19:04.335Z,2
2023-05-13T02:20:20.525Z,2
2023-05-13T02:21:36.724Z,1.9
2023-05-13T02:22:52.000Z,2
2023-05-13T02:24:09.106Z,1.7
2023-05-13T02:25:25.000Z,2.4
2023-05-13T02:26:23.501Z,1.8
2023-05-13T02:27:57.000Z,2
2023-05-13T02:29:13.000Z,2.1
2023-05-13T02:30:30.000Z,1.9
2023-05-13T02:31:46.000Z,2
2023-05-13T02:33:02.477Z,2.3
2023-05-13T02:34:00.672Z,1.9
2023-05-13T02:35:34.000Z,2
2023-05-13T02:36:33.063Z,2.4
2023-05-13T02:38:06.000Z,2.3
2023-05-13T02:39:04.468Z,1.9
2023-05-13T02:40:38.000Z,1.8
2023-05-13T02:41:54.000Z,2
2023-05-13T02:43:11.051Z,2
2023-05-13T02:44:27.256Z,2.1
2023-05-13T02:45:43.000Z,2
2023-05-13T02:46:41.639Z,1.7
2023-05-13T02:48:15.000Z,2.1
2023-05-13T02:49:14.029Z,1.9
2023-05-13T02:50:48.227Z,1.9
2023-05-13T02:51:46.419Z,2
2023-05-13T02:53:20.000Z,2.4
2023-05-13T02:54:35.000Z,2.3
2023-05-13T02:55:52.000Z,2
2023-05-13T02:57:08.207Z,2.1
2023-05-13T02:58:24.000Z,2.1
2023-05-13T02:59:40.613Z,2.1
2023-05-13T03:00:56.000Z,1.9
2023-05-13T03:02:12.987Z,1.9
2023-05-13T03:03:29.000Z,2.5
2023-05-13T03:04:45.387Z,1.9
2023-05-13T03:06:01.579Z,1.9
2023-05-13T03:07:17.000Z,1.7
2023-05-13T03:09:00.000Z,2.3
2023-05-13T03:09:50.163Z,1.9
2023-05-13T03:11:06.000Z,2.4
2023-05-13T03:12:04.553Z,2.1
2023-05-13T03:13:38.000Z,1.7
2023-05-13T03:14:37.066Z,2
2023-05-13T03:16:11.000Z,2.2
2023-05-13T03:17:27.451Z,2
2023-05-13T03:18:43.000Z,2.5
2023-05-13T03:19:59.846Z,1.9
2023-05-13T03:21:16.049Z,1.9
2023-05-13T03:22:32.000Z,1.8
2023-05-13T03:23:48.000Z,2.2
2023-05-13T03:25:04.626Z,1.9
2023-05-13T03:26:20.000Z,1.9
2023-05-13T03:27:37.017Z,2.1
2023-05-13T03:28:53.211Z,2
2023-05-13T03:30:08.000Z,2.1
2023-05-13T03:31:24.000Z,2.2
2023-05-13T03:32:40.814Z,2
2023-05-13T03:33:57.009Z,1.8
2023-05-13T03:35:13.203Z,2.4
2023-05-13T03:36:29.000Z,1.9
2023-05-13T03:37:27.595Z,1.7
2023-05-13T03:39:01.784Z,2.3
2023-05-13T03:40:17.989Z,1.9
2023-05-13T03:41:34.000Z,1.8
2023-05-13T03:42:32.375Z,2.1
2023-05-13T03:43:48.571Z,1.9
2023-05-13T03:45:22.000Z,1.9
2023-05-13T03:46:38.000Z,1.8
2023-05-13T03:47:55.156Z,2.2
2023-05-13T03:49:11.000Z,2
2023-05-13T03:50:09.546Z,2.1
2023-05-13T03:51:43.736Z,2
2023-05-13T03:52:58.950Z,2.1
2023-05-13T03:53:57.152Z,2
2023-05-13T03:55:31.348Z,2
2023-05-13T03:56:47.000Z,2.2
2023-05-13T03:58:03.000Z,1.6
2023-05-13T03:59:19.936Z,1.8
2023-05-13T04:00:36.136Z,2.3
2023-05-13T04:01:52.000Z,1.7
2023-05-13T04:02:50.517Z,1.7
2023-05-13T04:04:24.000Z,2.1
2023-05-13T04:05:40.000Z,2.2
2023-05-13T04:06:57.096Z,1.9
2023-05-13T04:07:55.297Z,2.1
2023-05-13T04:09:10.509Z,2.4
2023-05-13T04:10:44.000Z,2.1
2023-05-13T04:12:00.000Z,2
2023-05-13T04:13:17.093Z,2
2023-05-13T04:14:33.294Z,2.2
2023-05-13T04:15:31.483Z,1.9
2023-05-13T04:17:32.000Z,1.9
2023-05-13T04:18:48.000Z,2.1
2023-05-13T04:19:38.000Z,1.9
2023-05-13T04:20:54.000Z,2
2023-05-13T04:22:10.456Z,1.9
2023-05-13T04:23:26.654Z,2
2023-05-13T04:24:42.000Z,2.1
2023-05-13T04:25:59.000Z,2.2
2023-05-13T04:27:14.000Z,2.1
2023-05-13T04:28:12.451Z,2.1
2023-05-13T04:29:46.000Z,1.8
2023-05-13T04:31:29.000Z,2.2
2023-05-13T04:32:01.037Z,2.1
2023-05-13T04:33:17.232Z,2
2023-05-13T04:34:51.427Z,2.2
2023-05-13T04:36:07.000Z,2.2
2023-05-13T04:37:23.811Z,2.2
2023-05-13T04:38:40.018Z,2.2
2023-05-13T04:39:38.208Z,2
2023-05-13T04:40:54.403Z,1.7
2023-05-13T04:42:28.599Z,2.3
2023-05-13T04:43:26.794Z,2.2
2023-05-13T04:45:00.993Z,1.9
2023-05-13T04:45:59.185Z,2.2
2023-05-13T04:47:33.000Z,2.1
2023-05-13T04:48:48.000Z,2.2
2023-05-13T04:50:04.000Z,1.8
2023-05-13T04:51:20.987Z,1.7
2023-05-13T04:52:37.181Z,1.8
2023-05-13T04:53:53.373Z,2.1
2023-05-13T04:55:35.000Z,1.8
2023-05-13T04:56:07.760Z,1.8
2023-05-13T04:57:41.000Z,1.8
2023-05-13T04:58:58.159Z,1.9
2023-05-13T05:00:14.352Z,2.4
2023-05-13T05:01:30.542Z,1.9
2023-05-13T05:02:46.746Z,1.9
2023-05-13T05:04:02.926Z,2
2023-05-13T05:05:19.128Z,2.1
2023-05-13T05:06:17.323Z,2
2023-05-13T05:07:51.522Z,2
2023-05-13T05:08:48.730Z,2
2023-05-13T05:10:22.000Z,1.9
2023-05-13T05:11:21.121Z,2
2023-05-13T05:12:55.000Z,1.9
2023-05-13T05:14:11.511Z,1.8
2023-05-13T05:15:27.709Z,1.9
2023-05-13T05:16:43.915Z,2.3
2023-05-13T05:18:00.000Z,1.9
2023-05-13T05:18:58.293Z,1.9
2023-05-13T05:20:32.488Z,2.1
2023-05-13T05:21:48.692Z,1.8
2023-05-13T05:23:04.890Z,1.9
2023-05-13T05:24:21.078Z,2.2
2023-05-13T05:26:02.000Z,2.6
2023-05-13T05:26:52.481Z,2.5
2023-05-13T05:28:08.677Z,1.7
2023-05-13T05:29:24.875Z,1.9
2023-05-13T05:30:41.000Z,1.8
2023-05-13T05:31:57.000Z,1.6
2023-05-13T05:33:39.000Z,1.7
2023-05-13T05:34:29.655Z,1.9
2023-05-13T05:35:45.847Z,2.2
2023-05-13T05:37:02.042Z,2.1
2023-05-13T05:38:18.000Z,1.8
2023-05-13T05:39:34.000Z,1.7
2023-05-13T05:40:50.000Z,1.9
2023-05-13T05:42:06.820Z,1.7
2023-05-13T05:43:23.000Z,2.1
2023-05-13T05:44:39.338Z,1.7
2023-05-13T05:45:55.528Z,2.1
2023-05-13T05:47:11.732Z,1.7
2023-05-13T05:48:27.000Z,1.8
2023-05-13T05:49:44.000Z,1.6
2023-05-13T05:51:00.000Z,1.9
2023-05-13T05:52:16.000Z,1.9
2023-05-13T05:53:32.714Z,1.7
2023-05-13T05:54:48.908Z,1.6
2023-05-13T05:56:05.092Z,1.5
2023-05-13T05:57:21.000Z,1.9
2023-05-13T05:58:37.482Z,1.8
2023-05-13T05:59:35.677Z,1.7
2023-05-13T06:01:09.875Z,1.8
2023-05-13T06:02:25.085Z,1.8
2023-05-13T06:03:41.000Z,2.1
2023-05-13T06:04:57.000Z,1.8
2023-05-13T06:06:13.670Z,1.8
2023-05-13T06:07:56.000Z,1.9
2023-05-13T06:08:46.000Z,1.7
2023-05-13T06:09:44.255Z,2
2023-05-13T06:11:18.447Z,1.4
2023-05-13T06:12:16.644Z,1.8
2023-05-13T06:13:50.000Z,1.8
2023-05-13T06:15:07.028Z,1.6
2023-05-13T06:16:23.239Z,1.6
2023-05-13T06:17:39.000Z,1.6
2023-05-13T06:18:55.619Z,1.4
2023-05-13T06:20:11.823Z,2
2023-05-13T06:21:27.000Z,1.5
2023-05-13T06:22:43.218Z,1.7
2023-05-13T06:23:59.000Z,1.7
2023-05-13T06:25:15.619Z,1.6
2023-05-13T06:26:58.000Z,1.5
2023-05-13T06:27:47.997Z,1.9
2023-05-13T06:29:04.000Z,1.7
2023-05-13T06:30:20.000Z,1.9
2023-05-13T06:31:36.000Z,1.6
2023-05-13T06:32:52.000Z,1.7
2023-05-13T06:34:08.983Z,1.8
2023-05-13T06:35:07.168Z,1.8
2023-05-13T06:36:41.364Z,1.5
2023-05-13T06:37:39.558Z,1.7
2023-05-13T06:39:13.875Z,1.9
2023-05-13T06:40:30.066Z,1.5
2023-05-13T06:41:46.265Z,1.5
2023-05-13T06:43:02.000Z,1.6
2023-05-13T06:44:18.000Z,1.8
2023-05-13T06:45:34.852Z,1.5
2023-05-13T06:46:51.000Z,1.7
2023-05-13T06:47:49.237Z,2.1
2023-05-13T06:49:23.000Z,1.8
2023-05-13T06:51:06.000Z,1.7
2023-05-13T06:51:55.000Z,1.7
2023-05-13T06:53:12.018Z,1.6
2023-05-13T06:54:54.000Z,1.5
2023-05-13T06:55:43.000Z,1.4
2023-05-13T06:56:59.000Z,1.6
2023-05-13T06:58:15.822Z,1.5
2023-05-13T06:59:32.000Z,1.6
2023-05-13T07:00:48.210Z,1.6
2023-05-13T07:02:04.397Z,1.4
2023-05-13T07:03:20.597Z,1.4
2023-05-13T07:04:36.000Z,1.5
2023-05-13T07:05:34.983Z,1.6
2023-05-13T07:07:09.000Z,1.7
2023-05-13T07:08:25.373Z,1.7
2023-05-13T07:09:41.000Z,1.4
2023-05-13T07:11:24.000Z,1.6
2023-05-13T07:11:55.960Z,1.5
2023-05-13T07:13:12.155Z,1.5
2023-05-13T07:14:46.000Z,1.6
2023-05-13T07:16:02.557Z,1.3
2023-05-13T07:17:18.749Z,1.7
2023-05-13T07:18:33.948Z,1.4
2023-05-13T07:19:32.147Z,1.3
2023-05-13T07:21:06.000Z,1.3
2023-05-13T07:22:22.000Z,1.5
2023-05-13T07:23:38.000Z,1.5
2023-05-13T07:24:54.938Z,1.4
2023-05-13T07:25:53.120Z,1.8
2023-05-13T07:27:27.000Z,1.3
2023-05-13T07:28:43.515Z,1.4
2023-05-13T07:29:59.000Z,1.5
2023-05-13T07:31:15.896Z,1.6
2023-05-13T07:32:32.000Z,1.4
2023-05-13T07:33:48.292Z,1.6
2023-05-13T07:34:46.487Z,1.4
2023-05-13T07:36:20.000Z,1.5
2023-05-13T07:37:36.000Z,1.3
2023-05-13T07:38:53.080Z,1.4
2023-05-13T07:40:09.278Z,1.6
2023-05-13T07:41:24.476Z,1.3
2023-05-13T07:42:40.674Z,1.4
2023-05-13T07:44:23.000Z,1.3
2023-05-13T07:45:13.000Z,1.5
2023-05-13T07:46:29.259Z,1.5
2023-05-13T07:47:45.455Z,1.6
2023-05-13T07:49:01.658Z,1.4
2023-05-13T07:50:17.000Z,1.1
2023-05-13T07:51:16.039Z,1.3
2023-05-13T07:52:50.000Z,1.4
2023-05-13T07:54:06.432Z,1.1
2023-05-13T07:55:22.638Z,1
2023-05-13T07:56:38.834Z,1.2
2023-05-13T07:57:55.000Z,1.2
2023-05-13T07:59:11.211Z,1.2
2023-05-13T08:00:27.000Z,1.1
2023-05-13T08:01:43.615Z,1.3
2023-05-13T08:02:59.792Z,1.1
2023-05-13T08:04:15.987Z,1.2
2023-05-13T08:05:32.000Z,1.3
2023-05-13T08:06:48.379Z,1.3
2023-05-13T08:08:03.599Z,1.5
2023-05-13T08:09:19.000Z,1.3
2023-05-13T08:10:35.998Z,1.2
2023-05-13T08:11:52.000Z,1.2
2023-05-13T08:13:08.000Z,1.3
2023-05-13T08:14:24.000Z,1.3
2023-05-13T08:15:40.000Z,1.3
2023-05-13T08:16:38.964Z,1.3
2023-05-13T08:18:13.158Z,1.5
2023-05-13T08:19:11.354Z,1.4
2023-05-13T08:20:45.000Z,1.6
2023-05-13T08:22:28.000Z,1.2
2023-05-13T08:23:17.000Z,1.2
2023-05-13T08:24:34.000Z,1.3
2023-05-13T08:25:50.336Z,1.2
2023-05-13T08:27:05.538Z,1.2
2023-05-13T08:28:21.000Z,1.6
2023-05-13T08:29:37.939Z,1.3
2023-05-13T08:30:54.000Z,1.2
2023-05-13T08:32:10.320Z,1.3
2023-05-13T08:33:26.512Z,1.4
2023-05-13T08:34:24.713Z,1.6
2023-05-13T08:36:25.000Z,1.5
2023-05-13T08:37:15.000Z,1.4
2023-05-13T08:38:31.000Z,1.4
2023-05-13T08:39:47.496Z,1.4
2023-05-13T08:41:03.693Z,1.3
2023-05-13T08:42:01.887Z,1.2
2023-05-13T08:44:02.000Z,1.7
2023-05-13T08:44:52.275Z,1.3
2023-05-13T08:46:07.000Z,1.3
2023-05-13T08:47:05.686Z,1.4
2023-05-13T08:48:39.875Z,1.6
2023-05-13T08:49:56.000Z,1.5
2023-05-13T08:51:12.000Z,1.4
2023-05-13T08:52:28.473Z,1.4
2023-05-13T08:53:44.000Z,1.2
2023-05-13T08:55:00.860Z,1.2
2023-05-13T08:56:17.048Z,1.4
2023-05-13T08:57:33.252Z,1.9
2023-05-13T08:59:15.000Z,1.7
2023-05-13T09:00:05.652Z,1.6
2023-05-13T09:01:21.000Z,1.2
2023-05-13T09:02:38.000Z,1.5
2023-05-13T09:03:54.221Z,1.5
2023-05-13T09:05:09.000Z,1.2
2023-05-13T09:06:25.000Z,1.6
2023-05-13T09:07:41.000Z,1.5
2023-05-13T09:08:58.000Z,1.5
2023-05-13T09:10:14.225Z,1.6
2023-05-13T09:11:30.418Z,1.6
2023-05-13T09:12:46.616Z,1.7
2023-05-13T09:14:02.000Z,1.5
2023-05-13T09:15:19.000Z,1.2
2023-05-13T09:16:35.000Z,1.2
2023-05-13T09:17:51.400Z,1.3
2023-05-13T09:19:07.602Z,1.3
2023-05-13T09:20:23.789Z,1.6
2023-05-13T09:21:39.000Z,1.2
2023-05-13T09:22:56.176Z,1.5
2023-05-13T09:24:12.374Z,1.5
2023-05-13T09:25:28.577Z,1.3
2023-05-13T09:26:43.000Z,1.6
2023-05-13T09:27:59.977Z,1.6
2023-05-13T09:29:16.000Z,1.4
2023-05-13T09:30:32.000Z,1.4
2023-05-13T09:31:48.000Z,1.4
2023-05-13T09:33:04.000Z,1.3
2023-05-13T09:34:20.957Z,1.5
2023-05-13T09:35:37.142Z,1.4
2023-05-13T09:36:53.345Z,1.5
2023-05-13T09:38:09.000Z,1.6
2023-05-13T09:39:25.734Z,1.4
2023-05-13T09:40:41.000Z,1.3
2023-05-13T09:41:58.000Z,1.8
2023-05-13T09:43:14.318Z,1.4
2023-05-13T09:44:30.000Z,1.3
2023-05-13T09:46:13.000Z,1.1
2023-05-13T09:47:02.905Z,1.2
2023-05-13T09:48:19.100Z,1.3
2023-05-13T09:49:35.413Z,1.4
2023-05-13T09:50:51.611Z,1.5
2023-05-13T09:52:07.000Z,1.3
2023-05-13T09:53:24.000Z,1.6
2023-05-13T09:54:40.000Z,1.2
2023-05-13T09:55:56.396Z,1.2
2023-05-13T09:57:12.000Z,1.2
2023-05-13T09:58:28.000Z,1.2
2023-05-13T09:59:44.000Z,1.3
2023-05-13T10:01:01.177Z,1.1
2023-05-13T10:02:17.366Z,1
2023-05-13T10:03:33.564Z,1
2023-05-13T10:04:49.000Z,1.3
2023-05-13T10:06:05.000Z,1.5
2023-05-13T10:08:38.000Z,1.1
2023-05-13T10:09:54.000Z,1.2
2023-05-13T10:11:10.729Z,1.2
2023-05-13T10:12:26.932Z,1
2023-05-13T10:13:42.144Z,1
2023-05-13T10:14:58.000Z,1
2023-05-13T10:16:14.538Z,1.1
2023-05-13T10:17:30.729Z,1.2
2023-05-13T10:18:46.000Z,1.3
2023-05-13T10:20:03.112Z,1
2023-05-13T10:21:19.306Z,1.2
2023-05-13T10:23:01.000Z,1.2
2023-05-13T10:23:51.698Z,1.2
2023-05-13T10:25:07.000Z,1.1
2023-05-13T10:26:24.096Z,1.4
2023-05-13T10:27:40.296Z,1.1
2023-05-13T10:28:38.485Z,1
2023-05-13T10:30:12.000Z,1.1
2023-05-13T10:31:28.000Z,1.1
2023-05-13T10:32:45.000Z,1
2023-05-13T10:34:01.000Z,1.1
2023-05-13T10:35:17.457Z,1
2023-05-13T10:36:33.650Z,1.1
2023-05-13T10:37:49.852Z,1.2
2023-05-13T10:39:06.054Z,1.4
2023-05-13T10:40:22.000Z,1
2023-05-13T10:41:20.438Z,1.1
2023-05-13T10:42:54.633Z,1.1
2023-05-13T10:44:09.843Z,1.3
2023-05-13T10:45:26.036Z,1
2023-05-13T10:46:42.000Z,1
2023-05-13T10:47:58.000Z,1.3
2023-05-13T10:49:14.615Z,1.2
2023-05-13T10:50:30.811Z,1.2
2023-05-13T10:51:47.000Z,1.1
2023-05-13T10:53:03.195Z,1.2
2023-05-13T10:54:01.389Z,1.4
2023-05-13T10:55:35.583Z,1.5
2023-05-13T10:56:51.000Z,1.2
2023-05-13T10:58:07.960Z,1.2
2023-05-13T10:59:24.000Z,1.2
2023-05-13T11:00:40.355Z,1.1
2023-05-13T11:01:56.000Z,1.2
2023-05-13T11:03:12.000Z,1.2
2023-05-13T11:04:28.000Z,1.2
2023-05-13T11:05:45.000Z,1.2
2023-05-13T11:07:01.324Z,1.3
2023-05-13T11:08:17.000Z,1
2023-05-13T11:09:33.829Z,1.2
2023-05-13T11:10:50.000Z,1.2
2023-05-13T11:12:06.000Z,1.1
2023-05-13T11:13:22.407Z,1
2023-05-13T11:14:20.601Z,1.4
2023-05-13T11:15:54.000Z,1.1
2023-05-13T11:17:10.000Z,1
2023-05-13T11:18:27.000Z,1.2
2023-05-13T11:19:43.382Z,0.8
2023-05-13T11:20:59.557Z,1.1
2023-05-13T11:22:15.000Z,1
2023-05-13T11:23:31.000Z,1
2023-05-13T11:24:48.153Z,1
2023-05-13T11:26:04.000Z,1.2
2023-05-13T11:27:02.532Z,1.3
2023-05-13T11:28:36.000Z,1.3
2023-05-13T11:29:51.934Z,1.3
2023-05-13T11:31:08.128Z,1.1
2023-05-13T11:32:24.317Z,1.2
2023-05-13T11:33:40.000Z,1.2
2023-05-13T11:34:56.000Z,1.1
2023-05-13T11:36:12.900Z,1.2
2023-05-13T11:37:55.000Z,1
2023-05-13T11:38:45.000Z,1
2023-05-13T11:40:01.481Z,1.2
2023-05-13T11:41:17.000Z,1.2
2023-05-13T11:42:33.857Z,1
2023-05-13T11:43:50.057Z,1
2023-05-13T11:45:06.246Z,1.2
2023-05-13T11:46:21.462Z,1.1
2023-05-13T11:47:37.000Z,1.2
2023-05-13T11:48:53.000Z,1.1
2023-05-13T11:50:10.000Z,1
2023-05-13T11:51:26.224Z,1
2023-05-13T11:52:42.426Z,1
2023-05-13T11:53:58.000Z,1
2023-05-13T11:55:14.812Z,1.1
2023-05-13T11:56:31.000Z,0.9
2023-05-13T11:57:29.198Z,1.1
2023-05-13T11:59:03.388Z,1
2023-05-13T12:00:19.000Z,1.3
2023-05-13T12:01:35.000Z,1.2
2023-05-13T12:02:51.970Z,1.3
2023-05-13T12:04:08.000Z,1.3
2023-05-13T12:05:24.356Z,1.3
2023-05-13T12:06:40.000Z,1.1
2023-05-13T12:07:56.000Z,1.3
2023-05-13T12:09:12.000Z,1.1
2023-05-13T12:10:55.000Z,1.1
2023-05-13T12:11:44.000Z,1.2
2023-05-13T12:13:00.000Z,1.3
2023-05-13T12:14:16.000Z,1.1
2023-05-13T12:15:32.000Z,1.3
2023-05-13T12:16:49.000Z,1.2
2023-05-13T12:18:05.000Z,1.3
2023-05-13T12:19:21.000Z,1.2
2023-05-13T12:20:37.681Z,1.1
2023-05-13T12:21:53.877Z,1.1
2023-05-13T12:23:09.000Z,1.5
2023-05-13T12:24:25.301Z,1
2023-05-13T12:25:41.484Z,0.9
2023-05-13T12:26:57.677Z,1
2023-05-13T12:28:13.000Z,1.2
2023-05-13T12:29:30.071Z,1
2023-05-13T12:30:46.262Z,1
2023-05-13T12:32:02.000Z,1.2
2023-05-13T12:33:18.000Z,0.9
2023-05-13T12:34:34.000Z,0.9
2023-05-13T12:35:33.028Z,1.3
2023-05-13T12:37:07.218Z,1.2
2023-05-13T12:38:23.000Z,1
2023-05-13T12:39:39.608Z,1
2023-05-13T12:40:55.806Z,0.9
2023-05-13T12:42:12.000Z,1.1
2023-05-13T12:43:28.000Z,1.2
2023-05-13T12:44:44.381Z,1.1
2023-05-13T12:45:59.598Z,1.1
2023-05-13T12:47:15.000Z,1.1
2023-05-13T12:48:31.968Z,1.4
2023-05-13T12:49:48.000Z,1.2
2023-05-13T12:51:04.000Z,0.9
2023-05-13T12:52:20.566Z,1
2023-05-13T12:53:36.741Z,1
2023-05-13T12:54:52.000Z,1.3
2023-05-13T12:56:09.000Z,1.3
2023-05-13T12:57:25.000Z,0.9
2023-05-13T12:58:41.530Z,0.9
2023-05-13T12:59:57.716Z,1.2
2023-05-13T13:01:13.916Z,1.3
2023-05-13T13:02:56.000Z,1.3
2023-05-13T13:03:46.000Z,1.2
2023-05-13T13:05:02.000Z,0.9
2023-05-13T13:06:18.685Z,1.1
2023-05-13T13:07:33.883Z,1.3
2023-05-13T13:08:50.000Z,1.1
2023-05-13T13:10:06.276Z,1.6
2023-05-13T13:11:22.469Z,1.3
2023-05-13T13:12:38.000Z,1.1
2023-05-13T13:13:54.855Z,1
2023-05-13T13:15:11.042Z,1.2
2023-05-13T13:16:27.000Z,0.9
2023-05-13T13:17:43.000Z,1.3
2023-05-13T13:18:59.625Z,1.2
2023-05-13T13:20:15.000Z,1.2
2023-05-13T13:21:14.013Z,1.3
2023-05-13T13:22:48.201Z,1.4
2023-05-13T13:24:04.000Z,1.2
2023-05-13T13:25:20.000Z,1.1
2023-05-13T13:26:18.907Z,1.4
2023-05-13T13:27:53.101Z,0.9
2023-05-13T13:29:09.000Z,1.1
2023-05-13T13:30:25.481Z,1.3
2023-05-13T13:31:41.000Z,1.3
2023-05-13T13:32:57.873Z,1.1
2023-05-13T13:34:14.066Z,1
2023-05-13T13:35:30.000Z,1.2
2023-05-13T13:36:46.459Z,1.3
2023-05-13T13:38:02.638Z,0.9
2023-05-13T13:39:18.840Z,1.2
2023-05-13T13:40:35.038Z,1.1
2023-05-13T13:41:51.000Z,1.1
2023-05-13T13:43:07.000Z,1.2
2023-05-13T13:44:23.611Z,1.2
2023-05-13T13:45:39.808Z,1.1
2023-05-13T13:46:37.015Z,1.6
2023-05-13T13:48:11.000Z,1.2
2023-05-13T13:49:27.397Z,1.3
2023-05-13T13:50:43.000Z,1.4
2023-05-13T13:51:59.792Z,1.4
2023-05-13T13:53:15.000Z,1.3
2023-05-13T13:54:32.000Z,1.3
2023-05-13T13:55:48.364Z,1.2
2023-05-13T13:57:04.000Z,1.1
2023-05-13T13:58:20.000Z,1.3
2023-05-13T13:59:36.000Z,1.1
2023-05-13T14:00:53.140Z,1.5
2023-05-13T14:02:09.332Z,1.1
2023-05-13T14:03:25.000Z,1.2
2023-05-13T14:04:41.000Z,1.2
2023-05-13T14:05:57.000Z,1.4
2023-05-13T14:07:14.000Z,1.4
2023-05-13T14:08:30.288Z,1.4
2023-05-13T14:09:45.506Z,1.4
2023-05-13T14:11:01.000Z,1.2
2023-05-13T14:11:59.896Z,1.4
2023-05-13T14:13:34.000Z,1.5
2023-05-13T14:14:50.284Z,1.3
2023-05-13T14:16:06.000Z,1.4
2023-05-13T14:17:22.000Z,1.3
2023-05-13T14:18:38.861Z,1.4
2023-05-13T14:19:55.000Z,1.2
2023-05-13T14:21:11.000Z,1.3
2023-05-13T14:22:27.000Z,1.3
2023-05-13T14:23:43.000Z,1.5
2023-05-13T14:24:41.828Z,1.4
2023-05-13T14:26:42.000Z,1.3
2023-05-13T14:27:32.000Z,1.2
2023-05-13T14:28:48.000Z,1.4
2023-05-13T14:30:04.713Z,1.2
2023-05-13T14:31:20.000Z,1.3
2023-05-13T14:32:37.108Z,1.2
2023-05-13T14:34:19.000Z,1.4
2023-05-13T14:35:09.486Z,1.5
2023-05-13T14:36:25.000Z,1.1
2023-05-13T14:38:08.000Z,1.3
2023-05-13T14:38:58.069Z,1.4
2023-05-13T14:40:14.264Z,1.3
2023-05-13T14:41:30.467Z,1.8
2023-05-13T14:42:28.653Z,1.6
2023-05-13T14:44:01.000Z,1.3
2023-05-13T14:45:18.000Z,1.3
2023-05-13T14:46:34.253Z,1.3
2023-05-13T14:47:50.000Z,1.6
2023-05-13T14:49:32.000Z,1.5
2023-05-13T14:50:49.000Z,1.6
2023-05-13T14:51:39.000Z,1.5
2023-05-13T14:52:55.219Z,1.5
2023-05-13T14:54:11.415Z,1.1
2023-05-13T14:55:09.601Z,1.2
2023-05-13T14:56:43.000Z,1.4
2023-05-13T14:57:59.988Z,1.4
2023-05-13T14:59:16.000Z,1.3
2023-05-13T15:00:32.364Z,1.5
2023-05-13T15:01:47.590Z,1.2
2023-05-13T15:02:45.776Z,1.6
2023-05-13T15:04:19.000Z,1.1
2023-05-13T15:05:36.000Z,1.6
2023-05-13T15:06:52.000Z,1.3
2023-05-13T15:07:50.549Z,1.3
2023-05-13T15:09:24.741Z,1.4
2023-05-13T15:10:40.000Z,1.4
2023-05-13T15:11:57.000Z,1.4
2023-05-13T15:13:13.321Z,1.3
2023-05-13T15:14:29.513Z,1.2
2023-05-13T15:15:45.000Z,1.1
2023-05-13T15:17:01.900Z,1.4
2023-05-13T15:18:18.091Z,1.1
2023-05-13T15:19:33.302Z,1.1
2023-05-13T15:20:31.495Z,1.3
2023-05-13T15:22:05.000Z,1.3
2023-05-13T15:23:21.000Z,1.6
2023-05-13T15:24:38.000Z,1.3
2023-05-13T15:25:54.000Z,1.3
2023-05-13T15:27:36.000Z,1.2
2023-05-13T15:28:26.661Z,1.3
2023-05-13T15:29:42.000Z,1.4
2023-05-13T15:30:59.000Z,1.4
2023-05-13T15:32:15.233Z,1.4
2023-05-13T15:33:13.428Z,1.3
2023-05-13T15:34:47.000Z,1.3
2023-05-13T15:36:03.000Z,1.2
2023-05-13T15:37:20.000Z,1.2
2023-05-13T15:38:36.000Z,1.2
2023-05-13T15:39:52.398Z,1.3
2023-05-13T15:41:07.602Z,1.2
2023-05-13T15:42:23.000Z,1.3
2023-05-13T15:43:39.992Z,1.4
2023-05-13T15:44:56.000Z,1.2
2023-05-13T15:46:12.376Z,1.4
2023-05-13T15:47:28.000Z,1.4
2023-05-13T15:48:44.000Z,1.2
2023-05-13T15:50:27.000Z,1.2
2023-05-13T15:51:17.141Z,1.3
2023-05-13T15:52:33.000Z,1.2
2023-05-13T15:53:49.536Z,1.4
2023-05-13T15:55:05.724Z,1.7
2023-05-13T15:56:21.920Z,1.4
2023-05-13T15:57:20.117Z,1.3
2023-05-13T15:58:36.310Z,1.7
2023-05-13T16:00:10.000Z,1.5
2023-05-13T16:01:26.000Z,1.3
2023-05-13T16:02:42.000Z,1.2
2023-05-13T16:03:59.085Z,1.6
2023-05-13T16:05:14.000Z,1.6
2023-05-13T16:06:30.479Z,1.2
2023-05-13T16:07:46.677Z,1.6
2023-05-13T16:08:44.870Z,1.6
2023-05-13T16:10:19.057Z,1.6
2023-05-13T16:11:17.258Z,1.8
2023-05-13T16:12:51.455Z,1.9
2023-05-13T16:14:07.000Z,2.1
2023-05-13T16:15:23.837Z,1.9
2023-05-13T16:16:40.000Z,1.4
2023-05-13T16:17:56.222Z,2
2023-05-13T16:19:12.000Z,2
2023-05-13T16:20:54.000Z,2.4
2023-05-13T16:21:26.802Z,1.9
2023-05-13T16:23:01.000Z,1.6
2023-05-13T16:23:59.309Z,1.8
2023-05-13T16:25:33.500Z,2
2023-05-13T16:26:49.694Z,2.2
2023-05-13T16:28:05.888Z,2
2023-05-13T16:29:22.077Z,1.8
2023-05-13T16:30:38.000Z,2
2023-05-13T16:31:54.467Z,1.7
2023-05-13T16:33:10.661Z,1.6
2023-05-13T16:34:08.851Z,1.5
2023-05-13T16:35:43.051Z,1.6
2023-05-13T16:36:41.238Z,1.8
2023-05-13T16:38:15.000Z,1.5
2023-05-13T16:39:31.752Z,1.8
2023-05-13T16:40:47.949Z,1.7
2023-05-13T16:42:04.139Z,1.6
2023-05-13T16:43:20.330Z,1.9
2023-05-13T16:44:36.000Z,2
2023-05-13T16:45:52.000Z,1.8
2023-05-13T16:47:08.910Z,1.9
2023-05-13T16:48:25.000Z,1.6
2023-05-13T16:49:41.000Z,1.4
2023-05-13T16:50:57.000Z,1.5
2023-05-13T16:52:13.000Z,1.7
2023-05-13T16:53:29.882Z,1.7
2023-05-13T16:54:46.000Z,1.6
2023-05-13T16:56:01.284Z,1.5
2023-05-13T16:57:17.471Z,1.7
2023-05-13T16:58:33.668Z,1.7
2023-05-13T16:59:49.000Z,1.6
2023-05-13T17:01:06.000Z,1.8
2023-05-13T17:02:04.252Z,1.5
2023-05-13T17:03:38.436Z,1.6
2023-05-13T17:04:54.638Z,1.6
2023-05-13T17:06:10.830Z,1.6
2023-05-13T17:07:27.033Z,1.7
2023-05-13T17:08:43.000Z,1.5
2023-05-13T17:09:59.402Z,1.9
2023-05-13T17:11:15.000Z,1.8
2023-05-13T17:12:31.797Z,1.5
2023-05-13T17:13:47.013Z,1.8
2023-05-13T17:14:45.200Z,1.6
2023-05-13T17:16:19.000Z,1.8
2023-05-13T17:17:35.588Z,1.8
2023-05-13T17:18:51.781Z,1.6
2023-05-13T17:20:07.969Z,1.9
2023-05-13T17:21:24.000Z,1.6
2023-05-13T17:22:40.353Z,1.8
2023-05-13T17:23:56.000Z,1.6
2023-05-13T17:24:54.747Z,1.4
2023-05-13T17:26:28.936Z,1.4
2023-05-13T17:27:45.135Z,1.4
2023-05-13T17:29:01.000Z,1.3
2023-05-13T17:30:16.000Z,1.3
2023-05-13T17:31:32.000Z,1.4
2023-05-13T17:32:48.000Z,1.3
2023-05-13T17:34:05.120Z,1.6
2023-05-13T17:35:21.000Z,1.7
2023-05-13T17:37:03.000Z,1.7
2023-05-13T17:37:53.688Z,1.7